createdAt,value
2022-08-05T00:04:19.168Z,100648.97
2022-08-05T00:09:41.087Z,100639.81
2022-08-05T00:15:54.404Z,100654.84
2022-08-05T00:20:50.471Z,100656.19
2022-08-05T00:26:12.804Z,100650.75
2022-08-05T00:31:52.916Z,100642.56
2022-08-05T00:37:16.489Z,100643.06
2022-08-05T00:42:39.126Z,100644.66
2022-08-05T00:48:05.798Z,100657.78
2022-08-05T00:54:01.188Z,100646.63
2022-08-05T00:59:09.815Z,100645.69
2022-08-05T01:04:31.681Z,100637.19
2022-08-05T01:09:55.497Z,100635.50
2022-08-05T01:15:36.232Z,100642.63
2022-08-05T01:21:11.964Z,100638.09
2022-08-05T01:26:49.988Z,100634.53
2022-08-05T01:32:18.541Z,100628.34
2022-08-05T01:37:50.348Z,100615.34
2022-08-05T01:43:22.441Z,100628.56
2022-08-05T01:48:49.762Z,100618.59
2022-08-05T01:54:14.118Z,100627.41
2022-08-05T01:59:42.201Z,100615.97
2022-08-05T02:05:12.350Z,100616.09
2022-08-05T02:10:43.604Z,100611.28
2022-08-05T02:16:16.404Z,100597.13
2022-08-05T02:21:49.225Z,100604.44
2022-08-05T02:27:12.696Z,100594.59
2022-08-05T02:32:36.560Z,100599.72
2022-08-05T02:38:02.563Z,100591.13
2022-08-05T02:43:26.353Z,100593.13
2022-08-05T02:48:49.107Z,100591.56
2022-08-05T02:54:34.856Z,100584.84
2022-08-05T02:59:56.807Z,100580.75
2022-08-05T03:05:21.622Z,100575.81
2022-08-05T03:11:57.640Z,100570.88
2022-08-05T03:16:43.405Z,100581.59
2022-08-05T03:22:16.570Z,100562.50
2022-08-05T03:27:59.320Z,100574.94
2022-08-05T03:33:22.782Z,100574.22
2022-08-05T03:38:54.019Z,100561.94
2022-08-05T03:44:19.793Z,100562.28
2022-08-05T03:49:51.336Z,100558.13
2022-08-05T03:56:04.810Z,100561.19
2022-08-05T04:01:06.992Z,100563.03
2022-08-05T04:06:29.702Z,100570.41
2022-08-05T04:11:52.558Z,100561.53
2022-08-05T04:17:15.100Z,100559.97
2022-08-05T04:22:36.907Z,100567.22
2022-08-05T04:28:00.623Z,100558.59
2022-08-05T04:34:19.273Z,100549.63
2022-08-05T04:39:07.848Z,100561.50
2022-08-05T04:44:30.698Z,100561.53
2022-08-05T04:50:02.521Z,100558.88
2022-08-05T04:56:14.587Z,100557.50
2022-08-05T05:01:14.678Z,100562.84
2022-08-05T05:06:57.645Z,100562.03
2022-08-05T05:12:19.638Z,100570.66
2022-08-05T05:17:56.432Z,100571.44
2022-08-05T05:23:19.890Z,100567.44
2022-08-05T05:28:42.793Z,100573.25
2022-08-05T05:34:07.019Z,100580.97
2022-08-05T05:39:31.584Z,100589.84
2022-08-05T05:44:59.528Z,100574.69
2022-08-05T05:50:21.386Z,100586.31
2022-08-05T05:55:51.673Z,100583.09
2022-08-05T06:01:23.472Z,100570.25
2022-08-05T06:06:47.788Z,100581.06
2022-08-05T06:12:12.163Z,100576.81
2022-08-05T06:17:53.125Z,100573.09
2022-08-05T06:23:15.556Z,100581.78
2022-08-05T06:28:37.366Z,100577.84
2022-08-05T06:34:06.161Z,100569.84
2022-08-05T06:39:30.053Z,100568.78
2022-08-05T06:44:53.110Z,100578.34
2022-08-05T06:50:17.336Z,100575.50
2022-08-05T06:55:42.001Z,100563.22
2022-08-05T07:01:06.190Z,100559.81
2022-08-05T07:06:28.511Z,100566.25
2022-08-05T07:11:51.434Z,100557.59
2022-08-05T07:23:29.714Z,100560.47
2022-08-05T07:28:52.088Z,100561.81
2022-08-05T07:34:15.669Z,100542.34
2022-08-05T07:40:04.464Z,100545.88
2022-08-05T07:45:31.318Z,100551.91
2022-08-05T07:51:23.629Z,100540.69
2022-08-05T07:57:02.021Z,100544.09
2022-08-05T08:03:13.774Z,100539.00
2022-08-05T08:08:16.872Z,100544.66
2022-08-05T08:13:42.957Z,100535.22
2022-08-05T08:20:20.958Z,100535.31
2022-08-05T08:25:16.112Z,100539.84
2022-08-05T08:30:47.921Z,100538.03
2022-08-05T08:36:38.990Z,100526.00
2022-08-05T08:41:59.637Z,100529.00
2022-08-05T08:48:06.980Z,100517.28
2022-08-05T08:53:12.578Z,100524.63
2022-08-05T08:58:44.036Z,100528.97
2022-08-05T09:04:10.809Z,100515.94
2022-08-05T09:09:38.009Z,100507.59
2022-08-05T09:15:06.257Z,100497.03
2022-08-05T09:20:37.318Z,100507.09
2022-08-05T09:26:20.474Z,100509.75
2022-08-05T09:32:41.416Z,100496.38
2022-08-05T09:38:17.266Z,100493.16
2022-08-05T09:43:26.147Z,100485.41
2022-08-05T09:49:07.264Z,100485.47
2022-08-05T09:54:30.746Z,100472.72
2022-08-05T09:59:57.964Z,100472.13
2022-08-05T10:05:23.959Z,100471.09
2022-08-05T10:10:54.682Z,100467.56
2022-08-05T10:16:37.915Z,100470.81
2022-08-05T10:22:04.107Z,100443.69
2022-08-05T10:28:12.769Z,100450.22
2022-08-05T10:33:14.646Z,100435.56
2022-08-05T10:38:39.098Z,100435.53
2022-08-05T10:44:11.346Z,100427.22
2022-08-05T10:49:48.730Z,100420.91
2022-08-05T10:55:15.992Z,100412.72
2022-08-05T11:00:46.246Z,100410.94
2022-08-05T11:06:15.651Z,100418.56
2022-08-05T11:11:44.267Z,100412.09
2022-08-05T11:17:57.745Z,100397.44
2022-08-05T11:24:02.385Z,100401.06
2022-08-05T11:29:39.003Z,100391.16
2022-08-05T11:35:00.898Z,100395.28
2022-08-05T11:41:00.853Z,100386.00
2022-08-05T11:46:33.407Z,100377.84
2022-08-05T11:51:57.314Z,100383.50
2022-08-05T11:57:24.966Z,100383.75
2022-08-05T12:02:47.620Z,100391.19
2022-08-05T12:08:11.703Z,100381.75
2022-08-05T12:13:49.472Z,100377.50
2022-08-05T12:20:27.152Z,100375.00
2022-08-05T12:24:54.370Z,100367.09
2022-08-05T12:30:16.153Z,100355.28
2022-08-05T12:35:39.908Z,100355.97
2022-08-05T12:41:13.230Z,100349.91
2022-08-05T12:46:36.827Z,100339.69
2022-08-05T12:52:14.425Z,100337.63
2022-08-05T12:58:49.001Z,100330.84
2022-08-05T13:03:24.406Z,100332.28
2022-08-05T13:08:53.929Z,100327.22
2022-08-05T13:14:24.801Z,100315.38
2022-08-05T13:20:09.453Z,100318.03
2022-08-05T13:25:52.192Z,100313.25
2022-08-05T13:31:15.026Z,100319.44
2022-08-05T13:36:37.642Z,100314.47
2022-08-05T13:42:01.259Z,100304.69
2022-08-05T13:47:34.614Z,100305.72
2022-08-05T13:52:57.244Z,100304.03
2022-08-05T13:58:23.267Z,100296.41
2022-08-05T14:03:52.853Z,100301.66
2022-08-05T14:09:14.697Z,100294.75
2022-08-05T14:14:38.078Z,100285.56
2022-08-05T14:20:04.736Z,100282.97
2022-08-05T14:25:30.296Z,100271.75
2022-08-05T14:30:52.283Z,100271.47
2022-08-05T14:36:15.444Z,100282.16
2022-08-05T14:41:37.634Z,100273.38
2022-08-05T14:47:10.242Z,100278.91
2022-08-05T14:52:51.880Z,100266.00
2022-08-05T14:58:14.200Z,100264.28
2022-08-05T15:03:39.086Z,100272.28
2022-08-05T15:09:03.607Z,100265.94
2022-08-05T15:14:35.794Z,100265.31
2022-08-05T15:20:04.805Z,100259.41
2022-08-05T15:25:40.858Z,100257.66
2022-08-05T15:31:08.469Z,100264.84
2022-08-05T15:36:30.789Z,100255.09
2022-08-05T15:41:58.201Z,100247.47
2022-08-05T15:47:22.247Z,100245.22
2022-08-05T15:52:54.659Z,100250.13
2022-08-05T15:58:17.440Z,100244.16
2022-08-05T16:03:42.700Z,100237.03
2022-08-05T16:09:04.553Z,100230.13
2022-08-05T16:14:26.396Z,100235.84
2022-08-05T16:20:04.904Z,100233.25
2022-08-05T16:25:33.915Z,100233.09
2022-08-05T16:30:56.521Z,100228.56
2022-08-05T16:36:20.405Z,100223.06
2022-08-05T16:42:27.627Z,100211.25
2022-08-05T16:47:36.016Z,100216.69
2022-08-05T16:52:58.307Z,100210.25
2022-08-05T16:58:23.494Z,100212.56
2022-08-05T17:03:47.197Z,100222.78
2022-08-05T17:09:10.336Z,100203.75
2022-08-05T17:14:36.942Z,100218.38
2022-08-05T17:20:07.391Z,100219.84
2022-08-05T17:25:39.645Z,100223.53
2022-08-05T17:31:08.477Z,100216.63
2022-08-05T17:36:44.012Z,100221.03
2022-08-05T17:42:18.348Z,100221.94
2022-08-05T17:47:42.344Z,100229.16
2022-08-05T17:53:05.529Z,100229.06
2022-08-05T17:58:32.418Z,100219.00
2022-08-05T18:04:04.207Z,100231.19
2022-08-05T18:09:28.436Z,100232.59
2022-08-05T18:15:09.936Z,100220.91
2022-08-05T18:20:32.612Z,100215.03
2022-08-05T18:25:57.746Z,100216.69
2022-08-05T18:31:21.642Z,100227.16
2022-08-05T18:36:43.616Z,100238.63
2022-08-05T18:42:10.838Z,100242.81
2022-08-05T18:47:33.944Z,100242.56
2022-08-05T18:52:55.817Z,100235.97
2022-08-05T18:58:17.633Z,100243.47
2022-08-05T19:03:53.482Z,100248.50
2022-08-05T19:09:17.637Z,100243.69
2022-08-05T19:15:00.741Z,100226.56
2022-08-05T19:20:21.246Z,100248.81
2022-08-05T19:25:45.501Z,100227.38
2022-08-05T19:31:07.657Z,100244.97
2022-08-05T19:36:29.662Z,100241.66
2022-08-05T19:42:07.351Z,100244.81
2022-08-05T19:47:30.965Z,100246.75
2022-08-05T19:52:52.762Z,100250.06
2022-08-05T19:58:28.367Z,100241.88
2022-08-05T20:03:50.853Z,100256.13
2022-08-05T20:09:14.338Z,100244.09
2022-08-05T20:14:36.338Z,100241.94
2022-08-05T20:19:58.230Z,100245.19
2022-08-05T20:25:20.135Z,100243.53
2022-08-05T20:30:45.147Z,100242.56
2022-08-05T20:36:10.013Z,100256.16
2022-08-05T20:41:44.222Z,100246.03
2022-08-05T20:47:07.576Z,100249.06
2022-08-05T20:52:30.415Z,100251.00
2022-08-05T20:57:53.881Z,100247.56
2022-08-05T21:03:20.518Z,100252.34
2022-08-05T21:08:43.979Z,100255.59
2022-08-05T21:14:06.067Z,100259.06
2022-08-05T21:19:28.784Z,100253.56
2022-08-05T21:25:08.717Z,100249.22
2022-08-05T21:30:31.755Z,100261.56
2022-08-05T21:35:58.606Z,100255.28
2022-08-05T21:41:20.993Z,100254.63
2022-08-05T21:46:42.857Z,100254.50
2022-08-05T21:52:16.292Z,100260.97
2022-08-05T21:57:45.138Z,100256.09
2022-08-05T22:03:09.928Z,100229.59
2022-08-05T22:08:32.403Z,100262.25
2022-08-05T22:14:34.516Z,100250.19
2022-08-05T22:20:00.540Z,100261.75
2022-08-05T22:25:23.961Z,100260.38
2022-08-05T22:30:56.231Z,100267.19
2022-08-05T22:36:24.190Z,100269.41
2022-08-05T22:42:10.386Z,100254.94
2022-08-05T22:47:29.613Z,100263.31
2022-08-05T22:52:53.772Z,100246.06
2022-08-05T22:58:15.598Z,100255.41
2022-08-05T23:03:59.085Z,100250.81
2022-08-05T23:09:27.882Z,100236.19
2022-08-05T23:15:08.840Z,100250.22
2022-08-05T23:20:33.852Z,100231.88
2022-08-05T23:25:59.514Z,100240.50
2022-08-05T23:31:21.684Z,100227.44
2022-08-05T23:36:45.029Z,100238.56
2022-08-05T23:42:08.668Z,100256.47
2022-08-05T23:47:36.479Z,100253.09
2022-08-05T23:53:22.843Z,100266.69
2022-08-05T23:58:44.920Z,100262.34
